ID Time Temp Humidity Light PM2.5 PM10 Voltage Extra Firmware Position Fcnt TTN version Gateways Distance RSSI LSNR Radiosettings
2026-05-07 17:29:10 15.5°C 66.125% 3.37V v5 51.5323 / 4.48926 6723 ttn.v3 0.006km -50 12.2 867.3MHz, SF9BW125, 4/5CR
1.911km -121 -8.75 867.3MHz, SF9BW125, 4/5CR
2026-05-07 17:13:03 15.4375°C 66.1875% 3.37V v5 51.5323 / 4.48926 6722 ttn.v3 0.006km -55 12.8 868.3MHz, SF9BW125, 4/5CR
2026-05-07 16:56:56 15.4375°C 65.0625% 3.37V v5 51.5323 / 4.48926 6721 ttn.v3 0.006km -59 13 867.1MHz, SF9BW125, 4/5CR
1.911km -121 -14.5 867.1MHz, SF9BW125, 4/5CR
2026-05-07 16:40:51 15.5°C 64.6875% 3.37V v5 51.5323 / 4.48926 6720 ttn.v3 0.006km -50 8.8 868.1MHz, SF12BW125, 4/5CR
1.911km -120 -12.75 868.1MHz, SF12BW125, 4/5CR
2026-05-07 16:24:43 15.4375°C 66.375% 3.37V v5 51.5323 / 4.48926 6719 ttn.v3 0.006km -59 13.8 867.9MHz, SF9BW125, 4/5CR
1.911km -120 -8.25 867.9MHz, SF9BW125, 4/5CR
2026-05-07 16:08:37 15.5°C 66.3125% 3.37V v5 51.5323 / 4.48926 6718 ttn.v3 0.006km -57 8.8 868.5MHz, SF9BW125, 4/5CR
1.911km -119 -8.25 868.5MHz, SF9BW125, 4/5CR
2026-05-07 15:52:30 15.5°C 64.25% 3.37V v5 51.5323 / 4.48926 6717 ttn.v3 0.006km -54 12.5 867.7MHz, SF9BW125, 4/5CR
2026-05-07 15:36:23 15.4375°C 63% 3.37V v5 51.5323 / 4.48926 6716 ttn.v3 0.006km -57 11.8 868.3MHz, SF9BW125, 4/5CR
2026-05-07 15:20:17 15.375°C 62.375% 3.37V v5 51.5323 / 4.48926 6715 ttn.v3 0.006km -57 9 867.5MHz, SF9BW125, 4/5CR
1.911km -120 -8 867.5MHz, SF9BW125, 4/5CR
2026-05-07 15:04:10 15.375°C 62.6875% 3.37V v5 51.5323 / 4.48926 6714 ttn.v3 0.006km -55 13.2 868.1MHz, SF9BW125, 4/5CR
2026-05-07 14:48:03 15.4375°C 66.375% 3.37V v5 51.5323 / 4.48926 6713 ttn.v3 0.006km -55 11.2 867.3MHz, SF9BW125, 4/5CR
1.911km -120 -10.25 867.3MHz, SF9BW125, 4/5CR
2026-05-07 14:31:57 15.625°C 63.5% 3.37V v5 51.5323 / 4.48926 6712 ttn.v3 0.006km -57 8.8 868.5MHz, SF9BW125, 4/5CR
2026-05-07 14:15:50 15.75°C 64.5625% 3.37V v5 51.5323 / 4.48926 6711 ttn.v3 0.006km -55 12.2 867.1MHz, SF9BW125, 4/5CR
2026-05-07 13:59:43 15.3125°C 64.875% 3.37V v5 51.5323 / 4.48926 6710 ttn.v3 0.006km -55 13.5 868.3MHz, SF9BW125, 4/5CR
1.911km -119 -9.5 868.3MHz, SF9BW125, 4/5CR
2026-05-07 13:43:37 15.625°C 66.3125% 3.37V v5 51.5323 / 4.48926 6709 ttn.v3 0.006km -55 12 867.9MHz, SF9BW125, 4/5CR
1.911km -121 -9.75 867.9MHz, SF9BW125, 4/5CR
25.273km -131 -14.5 867.9MHz, SF9BW125, 4/5CR
2026-05-07 13:27:30 15.875°C 62.375% 3.37V v5 51.5323 / 4.48926 6708 ttn.v3 0.006km -63 11.8 868.1MHz, SF9BW125, 4/5CR
2026-05-07 13:11:23 15.3125°C 63.9375% 3.37V v5 51.5323 / 4.48926 6707 ttn.v3 0.006km -65 13.2 867.7MHz, SF9BW125, 4/5CR
1.911km -119 -9.25 867.7MHz, SF9BW125, 4/5CR
2026-05-07 12:55:17 15.4375°C 69.8125% 3.37V v5 51.5323 / 4.48926 6706 ttn.v3 0.006km -63 8.8 868.5MHz, SF9BW125, 4/5CR
2026-05-07 12:39:10 15.125°C 73.5% 3.37V v5 51.5323 / 4.48926 6705 ttn.v3 0.006km -65 8.8 867.5MHz, SF9BW125, 4/5CR
1.911km -120 -13 867.5MHz, SF9BW125, 4/5CR
2026-05-07 12:23:04 15.0625°C 76.5% 3.37V v5 51.5323 / 4.48926 6704 ttn.v3 0.006km -65 13.8 868.3MHz, SF9BW125, 4/5CR
2026-05-07 12:06:57 15.0625°C 76.5% 3.37V v5 51.5323 / 4.48926 6703 ttn.v3 0.006km -65 12.2 867.3MHz, SF9BW125, 4/5CR
1.911km -121 -9.75 867.3MHz, SF9BW125, 4/5CR
2026-05-07 11:50:51 14.625°C 81.625% 3.37V v5 51.5323 / 4.48926 6702 ttn.v3 0.006km -69 12.5 868.1MHz, SF9BW125, 4/5CR
1.911km -123 -10.75 868.1MHz, SF9BW125, 4/5CR
2026-05-07 11:34:45 14.125°C 80.875% 3.37V v5 51.5323 / 4.48926 6701 ttn.v3 0.006km -65 12.8 867.1MHz, SF9BW125, 4/5CR
2026-05-07 11:18:38 13.8125°C 83.9375% 3.37V v5 51.5323 / 4.48926 6700 ttn.v3 0.006km -63 9.5 868.5MHz, SF9BW125, 4/5CR
1.911km -120 -8.5 868.5MHz, SF9BW125, 4/5CR
2026-05-07 11:02:32 13.5625°C 94.25% 3.37V v5 51.5323 / 4.48926 6699 ttn.v3 0.006km -65 12.8 867.9MHz, SF9BW125, 4/5CR
1.911km -121 -9.25 867.9MHz, SF9BW125, 4/5CR
2026-05-07 10:46:26 13.125°C 93.3125% 3.37V v5 51.5323 / 4.48926 6698 ttn.v3 0.006km -67 12.8 868.3MHz, SF9BW125, 4/5CR
2026-05-07 10:30:20 12.8125°C 102.5% 3.37V v5 51.5323 / 4.48926 6697 ttn.v3 0.006km -65 12.8 867.7MHz, SF9BW125, 4/5CR
1.911km -120 -9 867.7MHz, SF9BW125, 4/5CR
2026-05-07 10:14:14 12.4375°C 101.188% 3.37V v5 51.5323 / 4.48926 6696 ttn.v3 0.006km -61 11.8 868.1MHz, SF9BW125, 4/5CR
2026-05-07 09:58:08 13.75°C 92.4375% 3.37V v5 51.5323 / 4.48926 6695 ttn.v3 0.006km -60 8.5 867.5MHz, SF9BW125, 4/5CR
1.911km -119 -7.75 867.5MHz, SF9BW125, 4/5CR
2026-05-07 09:42:02 14.0625°C 94.5625% 3.37V v5 51.5323 / 4.48926 6694 ttn.v3 0.006km -61 8.8 868.5MHz, SF9BW125, 4/5CR
1.911km -121 -8 868.5MHz, SF9BW125, 4/5CR
2026-05-07 09:25:56 11.25°C 9.25% 3.37V v5 51.5323 / 4.48926 6693 ttn.v3 0.006km -65 13 867.3MHz, SF9BW125, 4/5CR
1.911km -120 -11.25 867.3MHz, SF9BW125, 4/5CR
2026-05-07 09:09:51 10.4375°C 15.25% 3.38V v5 51.5323 / 4.48926 6692 ttn.v3 0.006km -65 12.8 868.3MHz, SF9BW125, 4/5CR
2026-05-07 08:53:45 10.1875°C 20.625% 3.38V v5 51.5323 / 4.48926 6691 ttn.v3 0.006km -61 12.5 867.1MHz, SF9BW125, 4/5CR
2026-05-07 08:37:40 9.6875°C 34.75% 3.38V v5 51.5323 / 4.48926 6690 ttn.v3 0.006km -65 13 868.1MHz, SF9BW125, 4/5CR
2026-05-07 08:21:35 9.4375°C 40.5% 3.38V v5 51.5323 / 4.48926 6689 ttn.v3 0.006km -65 13.8 867.9MHz, SF9BW125, 4/5CR
1.911km -120 -8 867.9MHz, SF9BW125, 4/5CR
2026-05-07 08:05:30 9.125°C 41.4375% 3.38V v5 51.5323 / 4.48926 6688 ttn.v3 0.006km -65 8.8 868.5MHz, SF9BW125, 4/5CR
1.911km -120 -9 868.5MHz, SF9BW125, 4/5CR
2026-05-07 07:49:25 8.6875°C 41.3125% 3.38V v5 51.5323 / 4.48926 6687 ttn.v3 0.006km -61 11.2 867.7MHz, SF9BW125, 4/5CR
1.911km -119 -8.75 867.7MHz, SF9BW125, 4/5CR
2026-05-07 07:33:20 8.5°C 37.125% 3.38V v5 51.5323 / 4.48926 6686 ttn.v3 0.006km -65 14 868.3MHz, SF9BW125, 4/5CR
2026-05-07 07:17:15 8.4375°C 34.9375% 3.38V v5 51.5323 / 4.48926 6685 ttn.v3 0.006km -63 8.5 867.5MHz, SF9BW125, 4/5CR
1.911km -119 -10.75 867.5MHz, SF9BW125, 4/5CR
2026-05-07 07:01:10 8.5625°C 33.8125% 3.38V v5 51.5323 / 4.48926 6684 ttn.v3 0.006km -61 11.2 868.1MHz, SF9BW125, 4/5CR
2026-05-07 06:45:05 8.5625°C 33.625% 3.38V v5 51.5323 / 4.48926 6683 ttn.v3 0.006km -63 12.8 867.3MHz, SF9BW125, 4/5CR
1.911km -119 -9.5 867.3MHz, SF9BW125, 4/5CR
2026-05-07 06:12:55 8.8125°C 36.8125% 3.38V v5 51.5323 / 4.48926 6681 ttn.v3 0.006km -65 14.2 867.1MHz, SF9BW125, 4/5CR
2026-05-07 05:56:50 8.9375°C 38.375% 3.37V v5 51.5323 / 4.48926 6680 ttn.v3 0.006km -65 13.8 868.3MHz, SF9BW125, 4/5CR
2026-05-07 05:40:45 9.0625°C 39.5625% 3.37V v5 51.5323 / 4.48926 6679 ttn.v3 0.006km -66 11.5 867.9MHz, SF9BW125, 4/5CR
1.911km -120 -8.5 867.9MHz, SF9BW125, 4/5CR
2026-05-07 05:24:40 9.125°C 39.25% 3.38V v5 51.5323 / 4.48926 6678 ttn.v3 0.006km -73 13 868.1MHz, SF9BW125, 4/5CR
2026-05-07 05:08:35 9.3125°C 39.4375% 3.38V v5 51.5323 / 4.48926 6677 ttn.v3 0.006km -69 12.8 867.7MHz, SF9BW125, 4/5CR
1.911km -121 -9.25 867.7MHz, SF9BW125, 4/5CR
2026-05-07 04:52:30 9.4375°C 39.875% 3.38V v5 51.5323 / 4.48926 6676 ttn.v3 0.006km -69 8.8 868.5MHz, SF9BW125, 4/5CR
2026-05-07 04:36:25 9.625°C 39.6875% 3.37V v5 51.5323 / 4.48926 6675 ttn.v3 0.006km -69 8.5 867.5MHz, SF9BW125, 4/5CR
1.911km -121 -9.5 867.5MHz, SF9BW125, 4/5CR
2026-05-07 04:20:20 9.875°C 37.6875% 3.38V v5 51.5323 / 4.48926 6674 ttn.v3 0.006km -69 13.5 868.3MHz, SF9BW125, 4/5CR
2026-05-07 04:04:14 10.0625°C 33.375% 3.38V v5 51.5323 / 4.48926 6673 ttn.v3 0.006km -73 12.8 867.3MHz, SF9BW125, 4/5CR
1.911km -121 -9.75 867.3MHz, SF9BW125, 4/5CR
2026-05-07 03:48:09 10.1875°C 30.8125% 3.38V v5 51.5323 / 4.48926 6672 ttn.v3 0.006km -72 12.2 868.1MHz, SF9BW125, 4/5CR
2026-05-07 03:32:04 10.3125°C 24.8125% 3.37V v5 51.5323 / 4.48926 6671 ttn.v3 0.006km -71 12.5 867.1MHz, SF9BW125, 4/5CR
2026-05-07 03:15:58 10.4375°C 17.875% 3.37V v5 51.5323 / 4.48926 6670 ttn.v3 0.006km -69 9.5 868.5MHz, SF9BW125, 4/5CR
2026-05-07 02:59:53 10.6875°C 12.5% 3.37V v5 51.5323 / 4.48926 6669 ttn.v3 0.006km -69 12.2 867.9MHz, SF9BW125, 4/5CR
1.911km -120 -9.5 867.9MHz, SF9BW125, 4/5CR
2026-05-07 02:43:48 10.6875°C 9.3125% 3.38V v5 51.5323 / 4.48926 6668 ttn.v3 0.006km -73 13.2 868.3MHz, SF9BW125, 4/5CR
2026-05-07 02:27:42 10.8125°C 3.4375% 3.37V v5 51.5323 / 4.48926 6667 ttn.v3 0.006km -67 12 867.7MHz, SF9BW125, 4/5CR
1.911km -119 -7.75 867.7MHz, SF9BW125, 4/5CR
2026-05-07 02:11:37 10.9375°C -1.5% 3.37V v5 51.5323 / 4.48926 6666 ttn.v3 0.006km -71 13 868.1MHz, SF9BW125, 4/5CR
2026-05-07 01:55:31 11.0625°C -3.375% 3.37V v5 51.5323 / 4.48926 6665 ttn.v3 0.006km -71 9.2 867.5MHz, SF9BW125, 4/5CR
2026-05-07 01:39:26 11.1875°C 117.5% 3.37V v5 51.5323 / 4.48926 6664 ttn.v3 0.006km -71 9 868.5MHz, SF9BW125, 4/5CR
1.911km -119 -8 868.5MHz, SF9BW125, 4/5CR
2026-05-07 01:23:20 11.375°C 118.75% 3.37V v5 51.5323 / 4.48926 6663 ttn.v3 0.006km -69 13 867.3MHz, SF9BW125, 4/5CR
1.911km -121 -10.25 867.3MHz, SF9BW125, 4/5CR
2026-05-07 01:07:15 11.4375°C 113.125% 3.37V v5 51.5323 / 4.48926 6662 ttn.v3 0.006km -69 12.5 868.3MHz, SF9BW125, 4/5CR
2026-05-07 00:51:09 11.5625°C 108.75% 3.38V v5 51.5323 / 4.48926 6661 ttn.v3 0.006km -69 13.2 867.1MHz, SF9BW125, 4/5CR
2026-05-07 00:35:03 11.625°C 103.938% 3.38V v5 51.5323 / 4.48926 6660 ttn.v3 0.006km -71 13.5 868.1MHz, SF9BW125, 4/5CR
2026-05-07 00:18:58 11.75°C 98.125% 3.37V v5 51.5323 / 4.48926 6659 ttn.v3 0.006km -71 13.8 867.9MHz, SF9BW125, 4/5CR
1.911km -121 -8.25 867.9MHz, SF9BW125, 4/5CR
2026-05-07 00:02:52 11.75°C 95.4375% 3.37V v5 51.5323 / 4.48926 6658 ttn.v3 0.006km -69 8.5 868.5MHz, SF9BW125, 4/5CR
1.911km -117 -9.25 868.5MHz, SF9BW125, 4/5CR
2026-05-06 23:46:46 11.75°C 96.8125% 3.37V v5 51.5323 / 4.48926 6657 ttn.v3 0.006km -69 13.8 867.7MHz, SF9BW125, 4/5CR
1.911km -120 -8.25 867.7MHz, SF9BW125, 4/5CR
2026-05-06 23:30:41 11.625°C 98.25% 3.37V v5 51.5323 / 4.48926 6656 ttn.v3 0.006km -71 14 868.3MHz, SF9BW125, 4/5CR
1.911km -115 -12.25 868.3MHz, SF9BW125, 4/5CR
2026-05-06 23:14:35 11.5625°C 102.438% 3.37V v5 51.5323 / 4.48926 6655 ttn.v3 0.006km -65 8.8 867.5MHz, SF9BW125, 4/5CR
1.911km -119 -8.75 867.5MHz, SF9BW125, 4/5CR
2026-05-06 22:58:29 11.625°C 103.25% 3.38V v5 51.5323 / 4.48926 6654 ttn.v3 0.006km -65 13.5 868.1MHz, SF9BW125, 4/5CR
1.911km -121 -10.25 868.1MHz, SF9BW125, 4/5CR
2026-05-06 22:42:24 11.75°C 100.312% 3.37V v5 51.5323 / 4.48926 6653 ttn.v3 0.006km -69 13.2 867.3MHz, SF9BW125, 4/5CR
1.911km -118 -10.25 867.3MHz, SF9BW125, 4/5CR
2026-05-06 22:26:18 11.875°C 100.562% 3.37V v5 51.5323 / 4.48926 6652 ttn.v3 0.006km -65 9 868.5MHz, SF9BW125, 4/5CR
1.911km -120 -8.5 868.5MHz, SF9BW125, 4/5CR
2026-05-06 22:10:13 12°C 92.6875% 3.37V v5 51.5323 / 4.48926 6651 ttn.v3 0.006km -73 13.8 867.1MHz, SF9BW125, 4/5CR
1.911km -121 -13.5 867.1MHz, SF9BW125, 4/5CR
2026-05-06 21:54:07 12.0625°C 90.625% 3.37V v5 51.5323 / 4.48926 6650 ttn.v3 0.006km -71 13.5 868.3MHz, SF9BW125, 4/5CR
2026-05-06 21:38:01 12.125°C 86.875% 3.37V v5 51.5323 / 4.48926 6649 ttn.v3 0.006km -69 12.8 867.9MHz, SF9BW125, 4/5CR
1.911km -121 -7.25 867.9MHz, SF9BW125, 4/5CR
2026-05-06 21:21:55 12.25°C 83.8125% 3.37V v5 51.5323 / 4.48926 6648 ttn.v3 0.006km -71 13.8 868.1MHz, SF9BW125, 4/5CR
2026-05-06 21:05:49 12.375°C 81.5% 3.37V v5 51.5323 / 4.48926 6647 ttn.v3 0.006km -69 13 867.7MHz, SF9BW125, 4/5CR
1.911km -119 -9.5 867.7MHz, SF9BW125, 4/5CR
2026-05-06 20:49:43 12.375°C 79.5625% 3.37V v5 51.5323 / 4.48926 6646 ttn.v3 0.006km -67 9.2 868.5MHz, SF9BW125, 4/5CR
1.911km -125 -9 868.5MHz, SF9BW125, 4/5CR
2026-05-06 20:33:37 12.4375°C 81.5625% 3.38V v5 51.5323 / 4.48926 6645 ttn.v3 0.006km -65 9.2 867.5MHz, SF9BW125, 4/5CR
1.911km -118 -10 867.5MHz, SF9BW125, 4/5CR
2026-05-06 20:17:32 12.5°C 82.3125% 3.37V v5 51.5323 / 4.48926 6644 ttn.v3 0.006km -69 12.2 868.3MHz, SF9BW125, 4/5CR
2026-05-06 20:01:26 12.5°C 80.3125% 3.38V v5 51.5323 / 4.48926 6643 ttn.v3 0.006km -75 11.8 867.3MHz, SF9BW125, 4/5CR
1.911km -120 -9.75 867.3MHz, SF9BW125, 4/5CR
2026-05-06 19:45:20 12.5625°C 80.3125% 3.37V v5 51.5323 / 4.48926 6642 ttn.v3 0.006km -66 12 868.1MHz, SF9BW125, 4/5CR
2026-05-06 19:29:14 12.6875°C 82.8125% 3.37V v5 51.5323 / 4.48926 6641 ttn.v3 0.006km -65 11.5 867.1MHz, SF9BW125, 4/5CR
1.911km -123 -9.5 867.1MHz, SF9BW125, 4/5CR
2026-05-06 19:13:08 12.75°C 80.4375% 3.37V v5 51.5323 / 4.48926 6640 ttn.v3 0.006km -67 8.5 868.5MHz, SF9BW125, 4/5CR
2026-05-06 18:57:02 12.9375°C 77.875% 3.37V v5 51.5323 / 4.48926 6639 ttn.v3 0.006km -67 11.2 867.9MHz, SF9BW125, 4/5CR
1.911km -120 -12.25 867.9MHz, SF9BW125, 4/5CR
2026-05-06 18:40:56 13.0625°C 77.1875% 3.37V v5 51.5323 / 4.48926 6638 ttn.v3 0.006km -65 13.2 868.3MHz, SF9BW125, 4/5CR
2026-05-06 18:24:50 13.0625°C 76.125% 3.37V v5 51.5323 / 4.48926 6637 ttn.v3 0.006km -63 13.5 867.7MHz, SF9BW125, 4/5CR
1.911km -120 -12 867.7MHz, SF9BW125, 4/5CR
2026-05-06 18:08:44 13.5°C 75.0625% 3.37V v5 51.5323 / 4.48926 6636 ttn.v3 0.006km -66 12.5 868.1MHz, SF9BW125, 4/5CR
2026-05-06 17:52:38 13.6875°C 71% 3.37V v5 51.5323 / 4.48926 6635 ttn.v3 0.006km -61 8.8 867.5MHz, SF9BW125, 4/5CR
1.911km -121 -11.5 867.5MHz, SF9BW125, 4/5CR
2026-05-06 17:36:32 13.9375°C 69.75% 3.37V v5 51.5323 / 4.48926 6634 ttn.v3 0.006km -61 8 868.5MHz, SF9BW125, 4/5CR
2026-05-06 17:20:25 14.125°C 67.5% 3.37V v5 51.5323 / 4.48926 6633 ttn.v3 0.006km -59 12.5 867.3MHz, SF9BW125, 4/5CR
2026-05-06 17:04:19 14.6875°C 66.9375% 3.37V v5 51.5323 / 4.48926 6632 ttn.v3 0.006km -67 13.2 868.3MHz, SF9BW125, 4/5CR
2026-05-06 16:48:13 14.5625°C 68.5% 3.37V v5 51.5323 / 4.48926 6631 ttn.v3 0.006km -65 13.8 867.1MHz, SF9BW125, 4/5CR
1.911km -121 -14 867.1MHz, SF9BW125, 4/5CR
2026-05-06 16:32:06 15°C 67.875% 3.37V v5 51.5323 / 4.48926 6630 ttn.v3 0.006km -67 13.5 868.1MHz, SF9BW125, 4/5CR
5.649km -134 -14.5 868.1MHz, SF9BW125, 4/5CR
2026-05-06 16:16:00 15.0625°C 68.4375% 3.37V v5 51.5323 / 4.48926 6629 ttn.v3 0.006km -65 12.8 867.9MHz, SF9BW125, 4/5CR
1.911km -120 -10 867.9MHz, SF9BW125, 4/5CR
2026-05-06 15:59:53 15.0625°C 72.4375% 3.37V v5 51.5323 / 4.48926 6628 ttn.v3 0.006km -65 8.8 868.5MHz, SF9BW125, 4/5CR
1.911km -120 -9.75 868.5MHz, SF9BW125, 4/5CR
2026-05-06 15:43:47 14.9375°C 73.9375% 3.37V v5 51.5323 / 4.48926 6627 ttn.v3 0.006km -60 12.5 867.7MHz, SF9BW125, 4/5CR
1.911km -121 -9.5 867.7MHz, SF9BW125, 4/5CR
2026-05-06 15:27:40 14.9375°C 70.1875% 3.37V v5 51.5323 / 4.48926 6626 ttn.v3 0.006km -65 14.2 868.3MHz, SF9BW125, 4/5CR
1.911km -118 -10 868.3MHz, SF9BW125, 4/5CR
2026-05-06 15:11:34 14.9375°C 70.5625% 3.37V v5 51.5323 / 4.48926 6625 ttn.v3 0.006km -63 8.5 867.5MHz, SF9BW125, 4/5CR
1.911km -119 -12 867.5MHz, SF9BW125, 4/5CR
2026-05-06 14:55:29 14.125°C 69.875% 3.37V v5 51.5323 / 4.48926 6624 ttn.v3 0.006km -61 9.8 868.1MHz, SF12BW125, 4/5CR
1.911km -123 -10.5 868.1MHz, SF12BW125, 4/5CR
5.649km -136 -16.5 868.1MHz, SF12BW125, 4/5CR
2026-05-06 14:39:21 13.9375°C 72% 3.37V v5 51.5323 / 4.48926 6623 ttn.v3 0.006km -59 13.2 867.3MHz, SF9BW125, 4/5CR
1.911km -121 -5.5 867.3MHz, SF9BW125, 4/5CR
2026-05-06 14:23:15 14.1875°C 75.125% 3.37V v5 51.5323 / 4.48926 6622 ttn.v3 0.006km -64 9.5 868.5MHz, SF9BW125, 4/5CR
2026-05-06 14:07:09 14.0625°C 81.6875% 3.37V v5 51.5323 / 4.48926 6621 ttn.v3 0.006km -65 14.2 867.1MHz, SF9BW125, 4/5CR
1.911km -123 -8 867.1MHz, SF9BW125, 4/5CR
2026-05-06 13:51:03 14.3125°C 77.8125% 3.37V v5 51.5323 / 4.48926 6620 ttn.v3 0.006km -63 13.5 868.3MHz, SF9BW125, 4/5CR
2026-05-06 13:34:56 14.375°C 77.625% 3.37V v5 51.5323 / 4.48926 6619 ttn.v3 0.006km -63 14.2 867.9MHz, SF9BW125, 4/5CR
1.911km -120 -10 867.9MHz, SF9BW125, 4/5CR
2026-05-06 13:18:50 14°C 79.0625% 3.37V v5 51.5323 / 4.48926 6618 ttn.v3 0.006km -61 11.5 868.1MHz, SF9BW125, 4/5CR
1.911km -120 -12.5 868.1MHz, SF9BW125, 4/5CR
2026-05-06 13:02:44 13.875°C 79.4375% 3.37V v5 51.5323 / 4.48926 6617 ttn.v3 0.006km -65 13.2 867.7MHz, SF9BW125, 4/5CR
5.649km -133 -11.8 867.7MHz, SF9BW125, 4/5CR
1.911km -119 -14.25 867.7MHz, SF9BW125, 4/5CR
2026-05-06 12:46:38 14°C 79.1875% 3.37V v5 51.5323 / 4.48926 6616 ttn.v3 0.006km -60 8.2 868.5MHz, SF9BW125, 4/5CR
1.911km -120 -11.75 868.5MHz, SF9BW125, 4/5CR
2026-05-06 12:30:31 13.875°C 90.9375% 3.37V v5 51.5323 / 4.48926 6615 ttn.v3 0.006km -61 8.5 867.5MHz, SF9BW125, 4/5CR
5.649km -130 -11.2 867.5MHz, SF9BW125, 4/5CR
1.911km -121 -11.25 867.5MHz, SF9BW125, 4/5CR
2026-05-06 12:14:25 14.3125°C 87.625% 3.37V v5 51.5323 / 4.48926 6614 ttn.v3 0.006km -58 11 868.3MHz, SF9BW125, 4/5CR
2026-05-06 11:58:19 13.75°C 100.188% 3.37V v5 51.5323 / 4.48926 6613 ttn.v3 0.006km -60 12.8 867.3MHz, SF9BW125, 4/5CR
1.911km -118 -8.75 867.3MHz, SF9BW125, 4/5CR
2026-05-06 11:42:13 13.6875°C 99.4375% 3.37V v5 51.5323 / 4.48926 6612 ttn.v3 0.006km -67 13 868.1MHz, SF9BW125, 4/5CR
2026-05-06 11:26:07 13.5°C 100.812% 3.37V v5 51.5323 / 4.48926 6611 ttn.v3 0.006km -60 12.2 867.1MHz, SF9BW125, 4/5CR
1.911km -121 -11.75 867.1MHz, SF9BW125, 4/5CR
2026-05-06 11:10:01 13.0625°C 108.75% 3.37V v5 51.5323 / 4.48926 6610 ttn.v3 0.006km -63 8.8 868.5MHz, SF9BW125, 4/5CR
1.911km -121 -7.75 868.5MHz, SF9BW125, 4/5CR
2026-05-06 10:53:55 12.75°C -0.3125% 3.37V v5 51.5323 / 4.48926 6609 ttn.v3 0.006km -63 12.8 867.9MHz, SF9BW125, 4/5CR
1.911km -121 -9.75 867.9MHz, SF9BW125, 4/5CR
5.649km -134 -12.8 867.9MHz, SF9BW125, 4/5CR
2026-05-06 10:37:49 12.5625°C 8.25% 3.37V v5 51.5323 / 4.48926 6608 ttn.v3 0.006km -60 11.8 868.3MHz, SF9BW125, 4/5CR
2026-05-06 10:21:43 12.3125°C 16.25% 3.37V v5 51.5323 / 4.48926 6607 ttn.v3 0.006km -67 13.2 867.7MHz, SF9BW125, 4/5CR
1.911km -120 -5.25 867.7MHz, SF9BW125, 4/5CR
2026-05-06 10:05:37 12°C 23.3125% 3.37V v5 51.5323 / 4.48926 6606 ttn.v3 0.006km -67 12.8 868.1MHz, SF9BW125, 4/5CR
2026-05-06 09:49:31 11.75°C 32.6875% 3.37V v5 51.5323 / 4.48926 6605 ttn.v3 0.006km -63 8.5 867.5MHz, SF9BW125, 4/5CR
1.911km -121 -8.5 867.5MHz, SF9BW125, 4/5CR
2026-05-06 09:33:26 11.4375°C 39.3125% 3.37V v5 51.5323 / 4.48926 6604 ttn.v3 0.006km -63 9 868.5MHz, SF9BW125, 4/5CR
2026-05-06 09:17:20 11.0625°C 40.5625% 3.38V v5 51.5323 / 4.48926 6603 ttn.v3 0.006km -69 12.2 867.3MHz, SF9BW125, 4/5CR
1.911km -118 -7.75 867.3MHz, SF9BW125, 4/5CR
5.649km -134 -13.8 867.3MHz, SF9BW125, 4/5CR
2026-05-06 09:01:15 10.6875°C 38.375% 3.38V v5 51.5323 / 4.48926 6602 ttn.v3 0.006km -67 13.5 868.3MHz, SF9BW125, 4/5CR
2026-05-06 08:45:09 10.125°C 33.25% 3.38V v5 51.5323 / 4.48926 6601 ttn.v3 0.006km -67 12.8 867.1MHz, SF9BW125, 4/5CR
2026-05-06 08:29:04 9.6875°C 30.9375% 3.37V v5 51.5323 / 4.48926 6600 ttn.v3 0.006km -67 12.5 868.1MHz, SF9BW125, 4/5CR
1.911km -121 -10.75 868.1MHz, SF9BW125, 4/5CR
2026-05-06 08:12:59 9.4375°C 31% 3.38V v5 51.5323 / 4.48926 6599 ttn.v3 0.006km -65 11 867.9MHz, SF9BW125, 4/5CR
2026-05-06 07:56:54 9.3125°C 31.625% 3.37V v5 51.5323 / 4.48926 6598 ttn.v3 0.006km -67 9 868.5MHz, SF9BW125, 4/5CR
2026-05-06 07:40:49 9.25°C 32.1875% 3.37V v5 51.5323 / 4.48926 6597 ttn.v3 0.006km -67 13 867.7MHz, SF9BW125, 4/5CR
1.911km -120 -9.25 867.7MHz, SF9BW125, 4/5CR
2026-05-06 07:24:44 9.1875°C 32.75% 3.38V v5 51.5323 / 4.48926 6596 ttn.v3 0.006km -65 12.8 868.3MHz, SF9BW125, 4/5CR
2026-05-06 07:08:39 9.125°C 33.1875% 3.38V v5 51.5323 / 4.48926 6595 ttn.v3 0.006km -65 9 867.5MHz, SF9BW125, 4/5CR
1.911km -120 -11.25 867.5MHz, SF9BW125, 4/5CR
2026-05-06 06:52:34 9.125°C 33.875% 3.38V v5 51.5323 / 4.48926 6594 ttn.v3 0.006km -67 13 868.1MHz, SF9BW125, 4/5CR
2026-05-06 06:36:29 9.1875°C 34.9375% 3.37V v5 51.5323 / 4.48926 6593 ttn.v3 0.006km -65 14 867.3MHz, SF9BW125, 4/5CR
1.911km -119 -7 867.3MHz, SF9BW125, 4/5CR
5.649km -132 -12.5 867.3MHz, SF9BW125, 4/5CR
2026-05-06 06:20:24 9.3125°C 37.125% 3.38V v5 51.5323 / 4.48926 6592 ttn.v3 0.006km -65 8.8 868.5MHz, SF9BW125, 4/5CR
2026-05-06 06:04:18 9.5625°C 41.625% 3.37V v5 51.5323 / 4.48926 6591 ttn.v3 0.006km -61 12.5 867.1MHz, SF9BW125, 4/5CR
1.911km -120 -11.5 867.1MHz, SF9BW125, 4/5CR
2026-05-06 05:48:13 9.75°C 41.875% 3.38V v5 51.5323 / 4.48926 6590 ttn.v3 0.006km -65 11.5 868.3MHz, SF9BW125, 4/5CR
2026-05-06 05:32:08 9.75°C 38.9375% 3.38V v5 51.5323 / 4.48926 6589 ttn.v3 0.006km -63 12.2 867.9MHz, SF9BW125, 4/5CR
1.911km -121 -9 867.9MHz, SF9BW125, 4/5CR
2026-05-06 05:16:03 9.75°C 39.1875% 3.37V v5 51.5323 / 4.48926 6588 ttn.v3 0.006km -71 13.5 868.1MHz, SF9BW125, 4/5CR
2026-05-06 04:59:57 9.75°C 38.125% 3.37V v5 51.5323 / 4.48926 6587 ttn.v3 0.006km -61 12.8 867.7MHz, SF9BW125, 4/5CR
1.911km -121 -10 867.7MHz, SF9BW125, 4/5CR
2026-05-06 04:43:52 9.75°C 36.6875% 3.38V v5 51.5323 / 4.48926 6586 ttn.v3 0.006km -67 9.2 868.5MHz, SF9BW125, 4/5CR
2026-05-06 04:27:47 9.8125°C 34.0625% 3.38V v5 51.5323 / 4.48926 6585 ttn.v3 0.006km -61 9 867.5MHz, SF9BW125, 4/5CR
1.911km -120 -8.5 867.5MHz, SF9BW125, 4/5CR
2026-05-06 04:11:42 9.6875°C 33.5625% 3.38V v5 51.5323 / 4.48926 6584 ttn.v3 0.006km -67 13.5 868.3MHz, SF9BW125, 4/5CR
2026-05-06 03:55:37 9.6875°C 32.5625% 3.38V v5 51.5323 / 4.48926 6583 ttn.v3 0.006km -60 11.8 867.3MHz, SF9BW125, 4/5CR
1.911km -119 -7.5 867.3MHz, SF9BW125, 4/5CR
25.273km -129 -12.75 867.3MHz, SF9BW125, 4/5CR
2026-05-06 03:39:31 9.6875°C 28.875% 3.38V v5 51.5323 / 4.48926 6582 ttn.v3 0.006km -69 13.2 868.1MHz, SF9BW125, 4/5CR
1.911km -121 -8.5 868.1MHz, SF9BW125, 4/5CR
2026-05-06 03:23:26 9.75°C 27% 3.38V v5 51.5323 / 4.48926 6581 ttn.v3 0.006km -67 12.5 867.1MHz, SF9BW125, 4/5CR
2026-05-06 03:07:21 9.6875°C 23.75% 3.37V v5 51.5323 / 4.48926 6580 ttn.v3 0.006km -63 9.5 868.5MHz, SF9BW125, 4/5CR
2026-05-06 02:51:16 9.6875°C 18.875% 3.38V v5 51.5323 / 4.48926 6579 ttn.v3 0.006km -66 12.2 867.9MHz, SF9BW125, 4/5CR
1.911km -121 -9.75 867.9MHz, SF9BW125, 4/5CR
25.273km -128 -15 867.9MHz, SF9BW125, 4/5CR
2026-05-06 02:35:10 9.75°C 17.0625% 3.37V v5 51.5323 / 4.48926 6578 ttn.v3 0.006km -63 13 868.3MHz, SF9BW125, 4/5CR
2026-05-06 02:19:05 9.8125°C 15.5625% 3.37V v5 51.5323 / 4.48926 6577 ttn.v3 0.006km -63 12.8 867.7MHz, SF9BW125, 4/5CR
1.911km -121 -10 867.7MHz, SF9BW125, 4/5CR
2026-05-06 02:03:00 9.75°C 16.875% 3.38V v5 51.5323 / 4.48926 6576 ttn.v3 0.006km -67 14 868.1MHz, SF9BW125, 4/5CR
2026-05-06 01:46:55 9.6875°C 19.6875% 3.38V v5 51.5323 / 4.48926 6575 ttn.v3 0.006km -59 9.5 867.5MHz, SF9BW125, 4/5CR
1.911km -120 -13 867.5MHz, SF9BW125, 4/5CR
2026-05-06 01:30:49 9.6875°C 19.5625% 3.38V v5 51.5323 / 4.48926 6574 ttn.v3 0.006km -67 8.8 868.5MHz, SF9BW125, 4/5CR
1.911km -119 -8.5 868.5MHz, SF9BW125, 4/5CR
2026-05-06 01:14:44 9.75°C 17.8125% 3.38V v5 51.5323 / 4.48926 6573 ttn.v3 0.006km -61 12 867.3MHz, SF9BW125, 4/5CR
1.911km -120 -9 867.3MHz, SF9BW125, 4/5CR
2026-05-06 00:58:39 9.8125°C 17.6875% 3.38V v5 51.5323 / 4.48926 6572 ttn.v3 0.006km -63 13 868.3MHz, SF9BW125, 4/5CR
2026-05-06 00:42:34 10°C 17.1875% 3.37V v5 51.5323 / 4.48926 6571 ttn.v3 0.006km -73 12 867.1MHz, SF9BW125, 4/5CR
1.911km -121 -11.75 867.1MHz, SF9BW125, 4/5CR
2026-05-06 00:26:28 10.125°C 15.1875% 3.37V v5 51.5323 / 4.48926 6570 ttn.v3 0.006km -62 11.5 868.1MHz, SF9BW125, 4/5CR
2026-05-06 00:10:23 10.3125°C 8.1875% 3.38V v5 51.5323 / 4.48926 6569 ttn.v3 0.006km -63 11.8 867.9MHz, SF9BW125, 4/5CR
1.911km -121 -9.5 867.9MHz, SF9BW125, 4/5CR
2026-05-05 23:54:18 10.5625°C -2.375% 3.37V v5 51.5323 / 4.48926 6568 ttn.v3 0.006km -67 9 868.5MHz, SF9BW125, 4/5CR
1.911km -119 -12.5 868.5MHz, SF9BW125, 4/5CR
2026-05-05 23:38:12 10.6875°C -1.8125% 3.38V v5 51.5323 / 4.48926 6567 ttn.v3 0.006km -67 14.2 867.7MHz, SF9BW125, 4/5CR
1.911km -117 -11.75 867.7MHz, SF9BW125, 4/5CR
2026-05-05 23:22:07 10.8125°C -3.9375% 3.37V v5 51.5323 / 4.48926 6566 ttn.v3 0.006km -63 12.2 868.3MHz, SF9BW125, 4/5CR
2026-05-05 23:06:01 11°C 117.562% 3.38V v5 51.5323 / 4.48926 6565 ttn.v3 0.006km -61 8.8 867.5MHz, SF9BW125, 4/5CR
1.911km -120 -12 867.5MHz, SF9BW125, 4/5CR
5.649km -134 -13.5 867.5MHz, SF9BW125, 4/5CR
2026-05-05 22:49:56 11.125°C 114.562% 3.37V v5 51.5323 / 4.48926 6564 ttn.v3 0.006km -67 12.2 868.1MHz, SF9BW125, 4/5CR
2026-05-05 22:33:50 11.375°C 114.75% 3.38V v5 51.5323 / 4.48926 6563 ttn.v3 0.006km -65 13.2 867.3MHz, SF9BW125, 4/5CR
1.911km -121 -9.75 867.3MHz, SF9BW125, 4/5CR
2026-05-05 22:17:44 11.5°C 114% 3.38V v5 51.5323 / 4.48926 6562 ttn.v3 0.006km -67 9.2 868.5MHz, SF9BW125, 4/5CR
1.911km -120 -8 868.5MHz, SF9BW125, 4/5CR
2026-05-05 22:01:39 11.6875°C 111.75% 3.37V v5 51.5323 / 4.48926 6561 ttn.v3 0.006km -73 13.5 867.1MHz, SF9BW125, 4/5CR
1.911km -120 -9.75 867.1MHz, SF9BW125, 4/5CR
2026-05-05 21:45:33 11.8125°C 112.25% 3.37V v5 51.5323 / 4.48926 6560 ttn.v3 0.006km -77 12 868.3MHz, SF9BW125, 4/5CR
2026-05-05 21:29:27 12.0625°C 108.375% 3.37V v5 51.5323 / 4.48926 6559 ttn.v3 0.006km -71 11.8 867.9MHz, SF9BW125, 4/5CR
1.911km -121 -7.5 867.9MHz, SF9BW125, 4/5CR
2026-05-05 21:13:22 12.1875°C 106.625% 3.37V v5 51.5323 / 4.48926 6558 ttn.v3 0.006km -63 13.8 868.1MHz, SF9BW125, 4/5CR
2026-05-05 20:57:16 12.5625°C 111.125% 3.37V v5 51.5323 / 4.48926 6557 ttn.v3 0.006km -55 11.5 867.7MHz, SF9BW125, 4/5CR
1.911km -121 -8.25 867.7MHz, SF9BW125, 4/5CR
2026-05-05 20:41:10 12.8125°C 106.375% 3.37V v5 51.5323 / 4.48926 6556 ttn.v3 0.006km -71 9 868.5MHz, SF9BW125, 4/5CR
1.911km -119 -7 868.5MHz, SF9BW125, 4/5CR
2026-05-05 20:25:04 13°C 104.75% 3.37V v5 51.5323 / 4.48926 6555 ttn.v3 0.006km -61 9 867.5MHz, SF9BW125, 4/5CR
1.911km -118 -10 867.5MHz, SF9BW125, 4/5CR
5.649km -132 -13.5 867.5MHz, SF9BW125, 4/5CR
2026-05-05 20:08:58 13.25°C 106.812% 3.37V v5 51.5323 / 4.48926 6554 ttn.v3 0.006km -65 12.8 868.3MHz, SF9BW125, 4/5CR
2026-05-05 19:52:52 13.5°C 105.625% 3.37V v5 51.5323 / 4.48926 6553 ttn.v3 0.006km -65 12.8 867.3MHz, SF9BW125, 4/5CR
1.911km -121 -8.5 867.3MHz, SF9BW125, 4/5CR
2026-05-05 19:36:45 13.625°C 105.812% 3.37V v5 51.5323 / 4.48926 6552 ttn.v3 0.006km -63 13.5 868.1MHz, SF9BW125, 4/5CR
1.911km -119 -9 868.1MHz, SF9BW125, 4/5CR
2026-05-05 19:20:39 13.75°C 105.812% 3.37V v5 51.5323 / 4.48926 6551 ttn.v3 0.006km -69 13.2 867.1MHz, SF9BW125, 4/5CR
2026-05-05 19:04:33 13.9375°C 106.438% 3.37V v5 51.5323 / 4.48926 6550 ttn.v3 0.006km -71 8.8 868.5MHz, SF9BW125, 4/5CR
1.911km -120 -6.75 868.5MHz, SF9BW125, 4/5CR
2026-05-05 18:48:27 14.1875°C 105.5% 3.37V v5 51.5323 / 4.48926 6549 ttn.v3 0.006km -65 12.5 867.9MHz, SF9BW125, 4/5CR
1.911km -120 -9.75 867.9MHz, SF9BW125, 4/5CR
2026-05-05 18:32:20 14.3125°C 109.625% 3.37V v5 51.5323 / 4.48926 6548 ttn.v3 0.006km -71 12.5 868.3MHz, SF9BW125, 4/5CR
2026-05-05 18:16:14 14.25°C 112.062% 3.37V v5 51.5323 / 4.48926 6547 ttn.v3 0.006km -67 14 867.7MHz, SF9BW125, 4/5CR
2026-05-05 18:00:08 14.25°C -2.5% 3.37V v5 51.5323 / 4.48926 6546 ttn.v3 0.006km -69 13.2 868.1MHz, SF9BW125, 4/5CR
2026-05-05 17:44:01 14.25°C -4.375% 3.37V v5 51.5323 / 4.48926 6545 ttn.v3 0.006km -65 9 867.5MHz, SF9BW125, 4/5CR
1.911km -120 -9 867.5MHz, SF9BW125, 4/5CR
2026-05-05 17:27:55 14.5°C 117.875% 3.37V v5 51.5323 / 4.48926 6544 ttn.v3 0.006km -64 9 868.5MHz, SF9BW125, 4/5CR
2026-05-05 17:11:48 14.25°C -5.25% 3.37V v5 51.5323 / 4.48926 6543 ttn.v3 0.006km -63 13 867.3MHz, SF9BW125, 4/5CR
1.911km -120 -7.75 867.3MHz, SF9BW125, 4/5CR
2026-05-05 16:55:42 13.8125°C -2.125% 3.37V v5 51.5323 / 4.48926 6542 ttn.v3 0.006km -69 12.8 868.3MHz, SF9BW125, 4/5CR
2026-05-05 16:39:36 13.6875°C 3.125% 3.37V v5 51.5323 / 4.48926 6541 ttn.v3 0.006km -66 12.5 867.1MHz, SF9BW125, 4/5CR
2026-05-05 16:23:30 13.6875°C 3.125% 3.37V v5 51.5323 / 4.48926 6540 ttn.v3 0.006km -69 14.2 868.1MHz, SF9BW125, 4/5CR
2026-05-05 16:07:24 13.9375°C -0.5% 3.37V v5 51.5323 / 4.48926 6539 ttn.v3 0.006km -66 13 867.9MHz, SF9BW125, 4/5CR
1.911km -121 -9.25 867.9MHz, SF9BW125, 4/5CR
2026-05-05 15:51:18 13.3125°C 19.75% 3.37V v5 51.5323 / 4.48926 6538 ttn.v3 0.006km -66 9 868.5MHz, SF9BW125, 4/5CR
2026-05-05 15:35:12 12.875°C 25.25% 3.37V v5 51.5323 / 4.48926 6537 ttn.v3 0.006km -63 11.8 867.7MHz, SF9BW125, 4/5CR
1.911km -120 -8.75 867.7MHz, SF9BW125, 4/5CR
2026-05-05 15:19:06 12.5625°C 33% 3.37V v5 51.5323 / 4.48926 6536 ttn.v3 0.006km -67 13.5 868.3MHz, SF9BW125, 4/5CR
2026-05-05 15:03:00 12.5°C 33.75% 3.37V v5 51.5323 / 4.48926 6535 ttn.v3 0.006km -71 8.8 867.5MHz, SF9BW125, 4/5CR
1.911km -120 -9 867.5MHz, SF9BW125, 4/5CR
2026-05-05 14:46:54 12.6875°C 30.25% 3.37V v5 51.5323 / 4.48926 6534 ttn.v3 0.006km -60 11 868.1MHz, SF9BW125, 4/5CR
1.911km -120 -11 868.1MHz, SF9BW125, 4/5CR
2026-05-05 14:30:48 12.75°C 30.25% 3.37V v5 51.5323 / 4.48926 6533 ttn.v3 0.006km -67 13.2 867.3MHz, SF9BW125, 4/5CR
1.911km -120 -8 867.3MHz, SF9BW125, 4/5CR
2026-05-05 14:14:42 12.875°C 29.625% 3.37V v5 51.5323 / 4.48926 6532 ttn.v3 0.006km -67 9.2 868.5MHz, SF9BW125, 4/5CR
1.911km -118 -9 868.5MHz, SF9BW125, 4/5CR
2026-05-05 13:58:36 12.375°C 33.875% 3.37V v5 51.5323 / 4.48926 6531 ttn.v3 0.006km -65 12.8 867.1MHz, SF9BW125, 4/5CR
1.911km -121 -7 867.1MHz, SF9BW125, 4/5CR
2026-05-05 13:42:30 12.3125°C 34.3125% 3.37V v5 51.5323 / 4.48926 6530 ttn.v3 0.006km -69 12.8 868.3MHz, SF9BW125, 4/5CR
1.911km -117 -9.25 868.3MHz, SF9BW125, 4/5CR
2026-05-05 13:26:25 12.125°C 37.3125% 3.37V v5 51.5323 / 4.48926 6529 ttn.v3 0.006km -67 13 867.9MHz, SF9BW125, 4/5CR
1.911km -123 -8.75 867.9MHz, SF9BW125, 4/5CR
2026-05-05 13:10:20 12.125°C 34.9375% 3.37V v5 51.5323 / 4.48926 6528 ttn.v3 0.006km -64 7.8 868.1MHz, SF12BW125, 4/5CR
1.911km -120 -11.75 868.1MHz, SF12BW125, 4/5CR
2026-05-05 12:54:13 12.0625°C 35.8125% 3.38V v5 51.5323 / 4.48926 6527 ttn.v3 0.006km -65 12 867.7MHz, SF9BW125, 4/5CR
1.911km -121 -10 867.7MHz, SF9BW125, 4/5CR
2026-05-05 12:38:07 12.25°C 37.25% 3.38V v5 51.5323 / 4.48926 6526 ttn.v3 0.006km -73 9 868.5MHz, SF9BW125, 4/5CR
2026-05-05 12:22:02 11.9375°C 40.375% 3.37V v5 51.5323 / 4.48926 6525 ttn.v3 0.006km -67 10 867.5MHz, SF9BW125, 4/5CR
1.911km -119 -11.5 867.5MHz, SF9BW125, 4/5CR
2026-05-05 12:05:56 11.6875°C 40.5% 3.37V v5 51.5323 / 4.48926 6524 ttn.v3 0.006km -69 12.2 868.3MHz, SF9BW125, 4/5CR
2026-05-05 11:49:50 11.375°C 41% 3.37V v5 51.5323 / 4.48926 6523 ttn.v3 0.006km -71 12 867.3MHz, SF9BW125, 4/5CR
1.911km -119 -8.5 867.3MHz, SF9BW125, 4/5CR

Message count: 200
Node count: 1

Messages per node

Number of messages in list aboveNodes
200

Statistics per gateway

GatewayNumber of messagesNumber of nodesNodes
2001 (0.006km)
1171 (1.911km)
91 (5.649km)
31 (25.273km)

Filter by dataset